This is the latest recevied weather packets stored in our database for station/object KP3M-5. If no packets are shown the sender has not sent any weather packets the latest 10 day(s).
| Time | Temp. | Humidity | Pressure | Rain* | Wind** | Luminosity | Snow |
|---|---|---|---|---|---|---|---|
| 1778364305 | 25.56° C | 73% | 1024 hPa | - | - | - | - |
| 1778360704 | 26.67° C | 69% | 1024 hPa | - | - | - | - |
| 1778357104 | 27.22° C | 64% | 1024 hPa | - | - | - | - |
| 1778353504 | 27.78° C | 62% | 1024 hPa | - | - | - | - |
| 1778349904 | 27.78° C | 63% | 1024 hPa | - | - | - | - |
| 1778346304 | 27.78° C | 61% | 1024 hPa | - | - | - | - |
| 1778342703 | 27.78° C | 60% | 1024 hPa | - | - | - | - |
| 1778339103 | 26.67° C | 67% | 1024 hPa | - | - | - | - |
| 1778335504 | 25.56° C | 72% | 1024 hPa | - | - | - | - |
| 1778331904 | 25° C | 77% | 1024 hPa | - | - | - | - |
| 1778328303 | 23.89° C | 80% | 1024 hPa | - | - | - | - |
| 1778324703 | 21.67° C | 89% | 1024 hPa | - | - | - | - |
| 1778321104 | 21.11° C | 89% | 1024 hPa | - | - | - | - |
| 1778317505 | 21.11° C | 89% | 1024 hPa | - | - | - | - |
| 1778313904 | 21.67° C | 88% | 1024 hPa | - | - | - | - |
| 1778277904 | 26.11° C | 69% | 1024 hPa | - | - | - | - |
| 1778274304 | 27.22° C | 64% | 1024 hPa | - | - | - | - |
| 1778270703 | 28.33° C | 61% | 1024 hPa | - | - | - | - |
| 1778267104 | 28.33° C | 62% | 1024 hPa | - | - | - | - |
| 1778263505 | 28.33° C | 60% | 1024 hPa | - | - | - | - |
| 1778259904 | 27.78° C | 62% | 1024 hPa | - | - | - | - |
| 1778256304 | 27.78° C | 63% | 1024 hPa | - | - | - | - |
| 1778249104 | 26.11° C | 68% | 1024 hPa | - | - | - | - |
| 1778245504 | 25° C | 79% | 1024 hPa | - | - | - | - |
| 1778241904 | 23.33° C | 82% | 1024 hPa | - | - | - | - |
* Rain since midnight (hover to see other rain measurements)
** Current wind speed in m/s (hover to see current wind gust speed)